Terminal Aerodrome Forecast
Issued by NWS

Home | Current Version | Previous Version | Text Only | Print | Product List | Glossary On
Versions: 1 2 3 4 5 6 7 8 9 10 11 12 13 14 15 16 17 18 19 20 21 22 23 24 25 26 27 28 29 30 31 32 33 34 35 36 37 38 39 40 41 42 43 44
246
FTUS46 KEKA 220557
TAFACV
TAF
KACV 220557Z 2206/2306 15020G32KT P6SM VCSH SCT060 BKN100
      WS020/14045KT
     FM220800 16022G35KT 6SM -RA SCT050 BKN080 WS020/14055KT
     FM221200 16018G28KT 6SM -SHRA SCT040 OVC060
     FM221400 17015G25KT P6SM VCSH SCT025 BKN040
     FM230000 18010G16KT P6SM -RA SCT020 BKN030=

USA.gov is the U.S. government's official web portal to all federal, state and local government web resources and services.